sensor_id;sensor_type;location;lat;lon;timestamp;P1;durP1;ratioP1;P2;durP2;ratioP2
870;SDS011;422;51.280;7.236;2022-10-22T00:00:14;8.60;;;5.23;;
870;SDS011;422;51.280;7.236;2022-10-22T00:02:42;5.43;;;4.70;;
870;SDS011;422;51.280;7.236;2022-10-22T00:05:12;10.33;;;5.30;;
870;SDS011;422;51.280;7.236;2022-10-22T00:07:41;10.60;;;5.73;;
870;SDS011;422;51.280;7.236;2022-10-22T00:10:09;8.97;;;5.40;;
870;SDS011;422;51.280;7.236;2022-10-22T00:12:36;6.87;;;4.77;;
870;SDS011;422;51.280;7.236;2022-10-22T00:15:07;7.10;;;4.87;;
870;SDS011;422;51.280;7.236;2022-10-22T00:17:34;10.73;;;5.03;;
870;SDS011;422;51.280;7.236;2022-10-22T00:20:05;7.93;;;5.23;;
870;SDS011;422;51.280;7.236;2022-10-22T00:22:35;8.73;;;5.70;;
870;SDS011;422;51.280;7.236;2022-10-22T00:25:04;8.37;;;5.17;;
870;SDS011;422;51.280;7.236;2022-10-22T00:27:32;7.10;;;5.40;;
870;SDS011;422;51.280;7.236;2022-10-22T00:30:02;7.07;;;5.50;;
870;SDS011;422;51.280;7.236;2022-10-22T00:32:32;8.50;;;5.60;;
870;SDS011;422;51.280;7.236;2022-10-22T00:34:59;7.77;;;6.20;;
870;SDS011;422;51.280;7.236;2022-10-22T00:37:26;11.70;;;6.47;;
870;SDS011;422;51.280;7.236;2022-10-22T00:39:54;5.60;;;5.00;;
870;SDS011;422;51.280;7.236;2022-10-22T00:42:25;7.63;;;5.43;;
870;SDS011;422;51.280;7.236;2022-10-22T00:45:05;9.67;;;6.70;;
870;SDS011;422;51.280;7.236;2022-10-22T00:47:55;11.73;;;5.63;;
870;SDS011;422;51.280;7.236;2022-10-22T00:50:26;8.60;;;5.90;;
870;SDS011;422;51.280;7.236;2022-10-22T00:52:57;9.73;;;5.17;;
870;SDS011;422;51.280;7.236;2022-10-22T00:55:25;9.23;;;5.33;;
870;SDS011;422;51.280;7.236;2022-10-22T00:57:57;7.60;;;6.70;;
870;SDS011;422;51.280;7.236;2022-10-22T01:00:26;8.77;;;5.60;;
870;SDS011;422;51.280;7.236;2022-10-22T01:02:54;7.43;;;5.30;;
870;SDS011;422;51.280;7.236;2022-10-22T01:05:22;14.53;;;6.63;;
870;SDS011;422;51.280;7.236;2022-10-22T01:07:53;9.73;;;5.93;;
870;SDS011;422;51.280;7.236;2022-10-22T01:10:31;8.07;;;5.70;;
870;SDS011;422;51.280;7.236;2022-10-22T01:13:12;13.03;;;6.20;;
870;SDS011;422;51.280;7.236;2022-10-22T01:15:49;6.93;;;4.93;;
870;SDS011;422;51.280;7.236;2022-10-22T01:18:32;9.90;;;5.53;;
870;SDS011;422;51.280;7.236;2022-10-22T01:21:12;9.10;;;6.00;;
870;SDS011;422;51.280;7.236;2022-10-22T01:26:48;8.27;;;5.53;;
870;SDS011;422;51.280;7.236;2022-10-22T01:29:28;9.37;;;5.90;;
870;SDS011;422;51.280;7.236;2022-10-22T01:31:59;9.00;;;5.97;;
870;SDS011;422;51.280;7.236;2022-10-22T01:34:32;9.40;;;6.30;;
870;SDS011;422;51.280;7.236;2022-10-22T01:37:00;9.70;;;6.60;;
870;SDS011;422;51.280;7.236;2022-10-22T01:39:28;8.50;;;6.67;;
870;SDS011;422;51.280;7.236;2022-10-22T01:41:57;8.73;;;6.17;;
870;SDS011;422;51.280;7.236;2022-10-22T01:44:25;6.07;;;5.50;;
870;SDS011;422;51.280;7.236;2022-10-22T01:46:57;8.97;;;6.73;;
870;SDS011;422;51.280;7.236;2022-10-22T01:49:35;9.17;;;6.57;;
870;SDS011;422;51.280;7.236;2022-10-22T01:52:20;7.60;;;5.80;;
870;SDS011;422;51.280;7.236;2022-10-22T01:54:58;9.53;;;6.80;;
870;SDS011;422;51.280;7.236;2022-10-22T01:57:41;10.83;;;7.60;;
870;SDS011;422;51.280;7.236;2022-10-22T02:00:16;11.30;;;7.23;;
870;SDS011;422;51.280;7.236;2022-10-22T02:02:46;10.27;;;5.83;;
870;SDS011;422;51.280;7.236;2022-10-22T02:05:24;11.00;;;6.07;;
870;SDS011;422;51.280;7.236;2022-10-22T02:07:58;11.37;;;7.30;;
870;SDS011;422;51.280;7.236;2022-10-22T02:10:28;13.40;;;5.90;;
870;SDS011;422;51.280;7.236;2022-10-22T02:12:57;9.73;;;6.17;;
870;SDS011;422;51.280;7.236;2022-10-22T02:15:28;6.53;;;5.70;;
870;SDS011;422;51.280;7.236;2022-10-22T02:18:01;7.73;;;6.37;;
870;SDS011;422;51.280;7.236;2022-10-22T02:20:31;6.33;;;5.50;;
870;SDS011;422;51.280;7.236;2022-10-22T02:22:59;9.93;;;6.60;;
870;SDS011;422;51.280;7.236;2022-10-22T02:25:28;8.03;;;5.30;;
870;SDS011;422;51.280;7.236;2022-10-22T02:27:59;9.10;;;6.63;;
870;SDS011;422;51.280;7.236;2022-10-22T02:30:35;12.77;;;7.40;;
870;SDS011;422;51.280;7.236;2022-10-22T02:33:07;7.30;;;6.53;;
870;SDS011;422;51.280;7.236;2022-10-22T02:35:40;8.83;;;6.00;;
870;SDS011;422;51.280;7.236;2022-10-22T02:38:08;7.53;;;6.70;;
870;SDS011;422;51.280;7.236;2022-10-22T02:40:37;11.57;;;6.80;;
870;SDS011;422;51.280;7.236;2022-10-22T02:43:05;14.27;;;7.30;;
870;SDS011;422;51.280;7.236;2022-10-22T02:45:32;8.97;;;6.90;;
870;SDS011;422;51.280;7.236;2022-10-22T02:48:03;9.50;;;6.90;;
870;SDS011;422;51.280;7.236;2022-10-22T02:50:31;10.43;;;7.80;;
870;SDS011;422;51.280;7.236;2022-10-22T02:53:00;9.73;;;6.73;;
870;SDS011;422;51.280;7.236;2022-10-22T02:55:27;9.33;;;6.93;;
870;SDS011;422;51.280;7.236;2022-10-22T02:57:54;9.77;;;6.80;;
870;SDS011;422;51.280;7.236;2022-10-22T03:00:21;10.27;;;6.30;;
870;SDS011;422;51.280;7.236;2022-10-22T03:02:50;10.83;;;7.00;;
870;SDS011;422;51.280;7.236;2022-10-22T03:05:17;8.37;;;6.80;;
870;SDS011;422;51.280;7.236;2022-10-22T03:07:47;10.30;;;7.00;;
870;SDS011;422;51.280;7.236;2022-10-22T03:10:17;8.70;;;7.03;;
870;SDS011;422;51.280;7.236;2022-10-22T03:12:44;8.27;;;7.03;;
870;SDS011;422;51.280;7.236;2022-10-22T03:15:12;11.43;;;8.13;;
870;SDS011;422;51.280;7.236;2022-10-22T03:17:42;13.13;;;6.53;;
870;SDS011;422;51.280;7.236;2022-10-22T03:20:11;15.13;;;7.03;;
870;SDS011;422;51.280;7.236;2022-10-22T03:22:38;8.80;;;7.53;;
870;SDS011;422;51.280;7.236;2022-10-22T03:25:08;10.07;;;7.60;;
870;SDS011;422;51.280;7.236;2022-10-22T03:27:37;8.10;;;6.90;;
870;SDS011;422;51.280;7.236;2022-10-22T03:30:06;12.40;;;7.93;;
870;SDS011;422;51.280;7.236;2022-10-22T03:32:34;16.17;;;8.30;;
870;SDS011;422;51.280;7.236;2022-10-22T03:35:02;11.03;;;7.70;;
870;SDS011;422;51.280;7.236;2022-10-22T03:37:31;9.97;;;6.93;;
870;SDS011;422;51.280;7.236;2022-10-22T03:40:01;9.67;;;7.40;;
870;SDS011;422;51.280;7.236;2022-10-22T03:42:29;11.07;;;7.50;;
870;SDS011;422;51.280;7.236;2022-10-22T03:44:59;16.47;;;8.03;;
870;SDS011;422;51.280;7.236;2022-10-22T03:47:27;12.83;;;8.50;;
870;SDS011;422;51.280;7.236;2022-10-22T03:49:57;11.10;;;7.40;;
870;SDS011;422;51.280;7.236;2022-10-22T03:52:24;10.07;;;7.00;;
870;SDS011;422;51.280;7.236;2022-10-22T03:54:53;7.63;;;6.83;;
870;SDS011;422;51.280;7.236;2022-10-22T03:57:20;10.20;;;7.37;;
870;SDS011;422;51.280;7.236;2022-10-22T03:59:47;12.37;;;8.07;;
870;SDS011;422;51.280;7.236;2022-10-22T04:02:15;8.53;;;7.60;;
870;SDS011;422;51.280;7.236;2022-10-22T04:04:42;11.63;;;8.27;;
870;SDS011;422;51.280;7.236;2022-10-22T04:07:09;10.90;;;8.30;;
870;SDS011;422;51.280;7.236;2022-10-22T04:09:37;10.40;;;8.20;;
870;SDS011;422;51.280;7.236;2022-10-22T04:12:07;11.07;;;7.80;;
870;SDS011;422;51.280;7.236;2022-10-22T04:14:35;18.90;;;9.20;;
870;SDS011;422;51.280;7.236;2022-10-22T04:17:04;8.17;;;7.00;;
870;SDS011;422;51.280;7.236;2022-10-22T04:19:31;9.90;;;8.00;;
870;SDS011;422;51.280;7.236;2022-10-22T04:21:59;10.90;;;8.33;;
870;SDS011;422;51.280;7.236;2022-10-22T04:24:28;9.23;;;8.17;;
870;SDS011;422;51.280;7.236;2022-10-22T04:26:56;12.33;;;10.90;;
870;SDS011;422;51.280;7.236;2022-10-22T04:29:28;12.90;;;9.10;;
870;SDS011;422;51.280;7.236;2022-10-22T04:31:55;15.40;;;9.33;;
870;SDS011;422;51.280;7.236;2022-10-22T04:34:25;8.80;;;8.00;;
870;SDS011;422;51.280;7.236;2022-10-22T04:36:56;11.33;;;9.17;;
870;SDS011;422;51.280;7.236;2022-10-22T04:39:23;10.47;;;8.43;;
870;SDS011;422;51.280;7.236;2022-10-22T04:41:50;11.90;;;9.47;;
870;SDS011;422;51.280;7.236;2022-10-22T04:44:17;14.17;;;8.50;;
870;SDS011;422;51.280;7.236;2022-10-22T04:46:46;10.73;;;9.10;;
870;SDS011;422;51.280;7.236;2022-10-22T04:49:16;15.93;;;9.50;;
870;SDS011;422;51.280;7.236;2022-10-22T04:51:46;9.30;;;8.30;;
870;SDS011;422;51.280;7.236;2022-10-22T04:54:13;12.83;;;8.43;;
870;SDS011;422;51.280;7.236;2022-10-22T04:56:41;9.83;;;8.83;;
870;SDS011;422;51.280;7.236;2022-10-22T04:59:09;13.13;;;9.93;;
870;SDS011;422;51.280;7.236;2022-10-22T05:01:41;14.73;;;10.90;;
870;SDS011;422;51.280;7.236;2022-10-22T05:04:12;14.30;;;9.23;;
870;SDS011;422;51.280;7.236;2022-10-22T05:06:42;12.83;;;9.97;;
870;SDS011;422;51.280;7.236;2022-10-22T05:09:10;15.17;;;10.40;;
870;SDS011;422;51.280;7.236;2022-10-22T05:11:39;15.23;;;9.47;;
870;SDS011;422;51.280;7.236;2022-10-22T05:14:09;14.93;;;9.43;;
870;SDS011;422;51.280;7.236;2022-10-22T05:16:37;10.53;;;9.23;;
870;SDS011;422;51.280;7.236;2022-10-22T05:19:05;11.17;;;9.93;;
870;SDS011;422;51.280;7.236;2022-10-22T05:21:35;12.13;;;10.50;;
870;SDS011;422;51.280;7.236;2022-10-22T05:24:03;14.27;;;9.60;;
870;SDS011;422;51.280;7.236;2022-10-22T05:26:33;11.17;;;9.50;;
870;SDS011;422;51.280;7.236;2022-10-22T05:29:00;11.50;;;9.10;;
870;SDS011;422;51.280;7.236;2022-10-22T05:31:27;13.43;;;10.30;;
870;SDS011;422;51.280;7.236;2022-10-22T05:33:54;13.80;;;11.50;;
870;SDS011;422;51.280;7.236;2022-10-22T05:36:22;16.97;;;10.40;;
870;SDS011;422;51.280;7.236;2022-10-22T05:38:50;14.10;;;10.03;;
870;SDS011;422;51.280;7.236;2022-10-22T05:41:18;14.47;;;10.23;;
870;SDS011;422;51.280;7.236;2022-10-22T05:43:47;17.33;;;11.80;;
870;SDS011;422;51.280;7.236;2022-10-22T05:46:16;13.90;;;12.27;;
870;SDS011;422;51.280;7.236;2022-10-22T05:48:47;16.90;;;11.97;;
870;SDS011;422;51.280;7.236;2022-10-22T05:51:15;16.83;;;11.07;;
870;SDS011;422;51.280;7.236;2022-10-22T05:53:42;13.83;;;11.33;;
870;SDS011;422;51.280;7.236;2022-10-22T05:56:13;14.90;;;11.00;;
870;SDS011;422;51.280;7.236;2022-10-22T05:58:44;11.53;;;10.33;;
870;SDS011;422;51.280;7.236;2022-10-22T06:01:12;14.23;;;11.53;;
870;SDS011;422;51.280;7.236;2022-10-22T06:03:42;17.10;;;10.50;;
870;SDS011;422;51.280;7.236;2022-10-22T06:06:13;11.53;;;10.33;;
870;SDS011;422;51.280;7.236;2022-10-22T06:08:44;16.80;;;11.13;;
870;SDS011;422;51.280;7.236;2022-10-22T06:11:13;17.70;;;11.90;;
870;SDS011;422;51.280;7.236;2022-10-22T06:13:42;13.80;;;11.57;;
870;SDS011;422;51.280;7.236;2022-10-22T06:16:09;12.90;;;11.20;;
870;SDS011;422;51.280;7.236;2022-10-22T06:18:36;17.33;;;11.63;;
870;SDS011;422;51.280;7.236;2022-10-22T06:21:04;15.80;;;11.80;;
870;SDS011;422;51.280;7.236;2022-10-22T06:23:35;14.80;;;10.67;;
870;SDS011;422;51.280;7.236;2022-10-22T06:26:03;13.63;;;11.77;;
870;SDS011;422;51.280;7.236;2022-10-22T06:28:34;13.10;;;11.80;;
870;SDS011;422;51.280;7.236;2022-10-22T06:31:03;13.50;;;11.33;;
870;SDS011;422;51.280;7.236;2022-10-22T06:33:32;15.33;;;11.07;;
870;SDS011;422;51.280;7.236;2022-10-22T06:36:06;12.07;;;10.77;;
870;SDS011;422;51.280;7.236;2022-10-22T06:38:35;17.73;;;11.90;;
870;SDS011;422;51.280;7.236;2022-10-22T06:41:03;13.20;;;11.33;;
870;SDS011;422;51.280;7.236;2022-10-22T06:43:34;12.90;;;11.60;;
870;SDS011;422;51.280;7.236;2022-10-22T06:46:03;12.20;;;10.57;;
870;SDS011;422;51.280;7.236;2022-10-22T06:48:33;12.30;;;11.10;;
870;SDS011;422;51.280;7.236;2022-10-22T06:51:05;13.53;;;11.10;;
870;SDS011;422;51.280;7.236;2022-10-22T06:53:34;15.33;;;11.80;;
870;SDS011;422;51.280;7.236;2022-10-22T06:56:03;13.00;;;10.93;;
870;SDS011;422;51.280;7.236;2022-10-22T06:58:31;13.40;;;11.70;;
870;SDS011;422;51.280;7.236;2022-10-22T07:01:03;11.83;;;10.63;;
870;SDS011;422;51.280;7.236;2022-10-22T07:03:31;17.07;;;9.93;;
870;SDS011;422;51.280;7.236;2022-10-22T07:06:04;13.27;;;9.90;;
870;SDS011;422;51.280;7.236;2022-10-22T07:08:38;17.23;;;10.63;;
870;SDS011;422;51.280;7.236;2022-10-22T07:11:07;19.37;;;15.80;;
870;SDS011;422;51.280;7.236;2022-10-22T07:13:35;18.23;;;14.33;;
870;SDS011;422;51.280;7.236;2022-10-22T07:16:05;12.60;;;10.40;;
870;SDS011;422;51.280;7.236;2022-10-22T07:18:33;20.47;;;9.60;;
870;SDS011;422;51.280;7.236;2022-10-22T07:21:01;13.97;;;10.50;;
870;SDS011;422;51.280;7.236;2022-10-22T07:23:32;13.83;;;10.77;;
870;SDS011;422;51.280;7.236;2022-10-22T07:25:59;12.20;;;9.23;;
870;SDS011;422;51.280;7.236;2022-10-22T07:28:27;10.83;;;8.50;;
870;SDS011;422;51.280;7.236;2022-10-22T07:30:56;14.83;;;9.13;;
870;SDS011;422;51.280;7.236;2022-10-22T07:33:28;11.63;;;8.57;;
870;SDS011;422;51.280;7.236;2022-10-22T07:35:57;12.00;;;8.87;;
870;SDS011;422;51.280;7.236;2022-10-22T07:38:25;11.13;;;8.07;;
870;SDS011;422;51.280;7.236;2022-10-22T07:40:55;9.17;;;7.10;;
870;SDS011;422;51.280;7.236;2022-10-22T07:43:26;7.80;;;7.10;;
870;SDS011;422;51.280;7.236;2022-10-22T07:45:56;8.60;;;6.77;;
870;SDS011;422;51.280;7.236;2022-10-22T07:48:25;8.13;;;6.70;;
870;SDS011;422;51.280;7.236;2022-10-22T07:50:52;10.00;;;7.17;;
870;SDS011;422;51.280;7.236;2022-10-22T07:53:21;9.57;;;5.90;;
870;SDS011;422;51.280;7.236;2022-10-22T07:55:48;6.17;;;5.60;;
870;SDS011;422;51.280;7.236;2022-10-22T07:58:16;9.00;;;5.90;;
870;SDS011;422;51.280;7.236;2022-10-22T08:00:44;8.60;;;5.83;;
870;SDS011;422;51.280;7.236;2022-10-22T08:03:13;6.00;;;4.93;;
870;SDS011;422;51.280;7.236;2022-10-22T08:05:42;9.10;;;6.07;;
870;SDS011;422;51.280;7.236;2022-10-22T08:08:10;7.03;;;6.03;;
870;SDS011;422;51.280;7.236;2022-10-22T08:10:38;8.90;;;6.20;;
870;SDS011;422;51.280;7.236;2022-10-22T08:13:06;7.20;;;5.37;;
870;SDS011;422;51.280;7.236;2022-10-22T08:15:34;6.87;;;5.87;;
870;SDS011;422;51.280;7.236;2022-10-22T08:18:04;7.23;;;5.60;;
870;SDS011;422;51.280;7.236;2022-10-22T08:20:31;8.37;;;5.70;;
870;SDS011;422;51.280;7.236;2022-10-22T08:23:00;7.60;;;4.77;;
870;SDS011;422;51.280;7.236;2022-10-22T08:25:28;8.80;;;5.20;;
870;SDS011;422;51.280;7.236;2022-10-22T08:27:56;6.47;;;5.47;;
870;SDS011;422;51.280;7.236;2022-10-22T08:30:23;7.30;;;5.70;;
870;SDS011;422;51.280;7.236;2022-10-22T08:32:54;7.10;;;5.73;;
870;SDS011;422;51.280;7.236;2022-10-22T08:35:21;7.53;;;4.77;;
870;SDS011;422;51.280;7.236;2022-10-22T08:37:48;7.57;;;4.87;;
870;SDS011;422;51.280;7.236;2022-10-22T08:40:20;8.50;;;5.07;;
870;SDS011;422;51.280;7.236;2022-10-22T08:45:52;11.43;;;4.80;;
870;SDS011;422;51.280;7.236;2022-10-22T08:48:30;5.30;;;4.20;;
870;SDS011;422;51.280;7.236;2022-10-22T08:51:10;6.50;;;4.23;;
870;SDS011;422;51.280;7.236;2022-10-22T08:53:42;7.57;;;4.27;;
870;SDS011;422;51.280;7.236;2022-10-22T08:56:21;4.70;;;4.07;;
870;SDS011;422;51.280;7.236;2022-10-22T08:58:50;11.03;;;4.67;;
870;SDS011;422;51.280;7.236;2022-10-22T09:01:26;5.93;;;4.10;;
870;SDS011;422;51.280;7.236;2022-10-22T09:04:00;7.73;;;4.30;;
870;SDS011;422;51.280;7.236;2022-10-22T09:06:32;10.33;;;4.50;;
870;SDS011;422;51.280;7.236;2022-10-22T09:09:08;7.67;;;4.90;;
870;SDS011;422;51.280;7.236;2022-10-22T09:11:46;10.90;;;4.40;;
870;SDS011;422;51.280;7.236;2022-10-22T09:14:15;6.90;;;3.93;;
870;SDS011;422;51.280;7.236;2022-10-22T09:16:54;9.93;;;3.87;;
870;SDS011;422;51.280;7.236;2022-10-22T09:19:38;10.37;;;4.30;;
870;SDS011;422;51.280;7.236;2022-10-22T09:22:15;9.60;;;3.90;;
870;SDS011;422;51.280;7.236;2022-10-22T09:24:52;8.40;;;3.80;;
870;SDS011;422;51.280;7.236;2022-10-22T09:27:27;12.30;;;4.03;;
870;SDS011;422;51.280;7.236;2022-10-22T09:29:55;7.87;;;3.53;;
870;SDS011;422;51.280;7.236;2022-10-22T09:32:24;5.73;;;3.77;;
870;SDS011;422;51.280;7.236;2022-10-22T09:34:54;4.00;;;3.40;;
870;SDS011;422;51.280;7.236;2022-10-22T09:37:24;6.80;;;4.20;;
870;SDS011;422;51.280;7.236;2022-10-22T09:39:53;18.47;;;4.00;;
870;SDS011;422;51.280;7.236;2022-10-22T09:42:23;5.60;;;3.43;;
870;SDS011;422;51.280;7.236;2022-10-22T09:44:54;9.43;;;3.63;;
870;SDS011;422;51.280;7.236;2022-10-22T09:47:28;7.47;;;4.60;;
870;SDS011;422;51.280;7.236;2022-10-22T09:50:08;6.33;;;3.70;;
870;SDS011;422;51.280;7.236;2022-10-22T09:52:45;5.50;;;2.93;;
870;SDS011;422;51.280;7.236;2022-10-22T09:55:26;5.47;;;3.43;;
870;SDS011;422;51.280;7.236;2022-10-22T09:57:53;7.80;;;4.13;;
870;SDS011;422;51.280;7.236;2022-10-22T10:00:23;14.60;;;4.10;;
870;SDS011;422;51.280;7.236;2022-10-22T10:02:55;6.73;;;3.50;;
870;SDS011;422;51.280;7.236;2022-10-22T10:05:24;8.83;;;3.50;;
870;SDS011;422;51.280;7.236;2022-10-22T10:07:53;8.83;;;3.77;;
870;SDS011;422;51.280;7.236;2022-10-22T10:10:25;7.60;;;4.20;;
870;SDS011;422;51.280;7.236;2022-10-22T10:12:59;6.03;;;3.50;;
870;SDS011;422;51.280;7.236;2022-10-22T10:15:35;5.97;;;4.03;;
870;SDS011;422;51.280;7.236;2022-10-22T10:18:11;6.40;;;3.77;;
870;SDS011;422;51.280;7.236;2022-10-22T10:20:52;7.07;;;3.87;;
870;SDS011;422;51.280;7.236;2022-10-22T10:23:24;6.97;;;3.77;;
870;SDS011;422;51.280;7.236;2022-10-22T10:26:00;7.43;;;3.83;;
870;SDS011;422;51.280;7.236;2022-10-22T10:28:37;8.47;;;3.43;;
870;SDS011;422;51.280;7.236;2022-10-22T10:31:27;11.07;;;4.07;;
870;SDS011;422;51.280;7.236;2022-10-22T10:34:05;10.90;;;3.80;;
870;SDS011;422;51.280;7.236;2022-10-22T10:36:44;7.60;;;3.33;;
870;SDS011;422;51.280;7.236;2022-10-22T10:39:22;7.20;;;3.13;;
870;SDS011;422;51.280;7.236;2022-10-22T10:41:57;7.43;;;3.33;;
870;SDS011;422;51.280;7.236;2022-10-22T10:44:39;8.83;;;3.60;;
870;SDS011;422;51.280;7.236;2022-10-22T10:47:25;6.93;;;3.10;;
870;SDS011;422;51.280;7.236;2022-10-22T10:50:16;10.80;;;2.93;;
870;SDS011;422;51.280;7.236;2022-10-22T10:52:51;17.20;;;3.53;;
870;SDS011;422;51.280;7.236;2022-10-22T10:55:29;6.40;;;2.90;;
870;SDS011;422;51.280;7.236;2022-10-22T10:58:03;5.87;;;2.90;;
870;SDS011;422;51.280;7.236;2022-10-22T11:00:43;6.63;;;3.37;;
870;SDS011;422;51.280;7.236;2022-10-22T11:03:28;4.03;;;2.60;;
870;SDS011;422;51.280;7.236;2022-10-22T11:06:08;4.40;;;3.33;;
870;SDS011;422;51.280;7.236;2022-10-22T11:08:41;14.03;;;3.30;;
870;SDS011;422;51.280;7.236;2022-10-22T11:11:15;9.37;;;4.10;;
870;SDS011;422;51.280;7.236;2022-10-22T11:13:48;7.53;;;3.83;;
870;SDS011;422;51.280;7.236;2022-10-22T11:16:20;6.57;;;2.53;;
870;SDS011;422;51.280;7.236;2022-10-22T11:18:54;8.03;;;3.13;;
870;SDS011;422;51.280;7.236;2022-10-22T11:21:30;6.43;;;2.40;;
870;SDS011;422;51.280;7.236;2022-10-22T11:24:03;6.30;;;2.90;;
870;SDS011;422;51.280;7.236;2022-10-22T11:26:43;6.77;;;2.73;;
870;SDS011;422;51.280;7.236;2022-10-22T11:29:14;7.00;;;2.60;;
870;SDS011;422;51.280;7.236;2022-10-22T11:31:49;9.50;;;2.60;;
870;SDS011;422;51.280;7.236;2022-10-22T11:34:20;7.87;;;3.10;;
870;SDS011;422;51.280;7.236;2022-10-22T11:36:52;7.50;;;3.20;;
870;SDS011;422;51.280;7.236;2022-10-22T11:39:27;5.50;;;2.83;;
870;SDS011;422;51.280;7.236;2022-10-22T11:42:01;6.20;;;2.50;;
870;SDS011;422;51.280;7.236;2022-10-22T11:47:28;5.50;;;2.50;;
870;SDS011;422;51.280;7.236;2022-10-22T11:50:15;6.67;;;2.70;;
870;SDS011;422;51.280;7.236;2022-10-22T11:52:53;8.83;;;3.00;;
870;SDS011;422;51.280;7.236;2022-10-22T11:55:42;14.50;;;3.13;;
870;SDS011;422;51.280;7.236;2022-10-22T11:58:28;5.13;;;2.80;;
870;SDS011;422;51.280;7.236;2022-10-22T12:01:17;5.70;;;3.07;;
870;SDS011;422;51.280;7.236;2022-10-22T12:03:49;6.07;;;2.40;;
870;SDS011;422;51.280;7.236;2022-10-22T12:06:51;7.43;;;2.80;;
870;SDS011;422;51.280;7.236;2022-10-22T12:09:24;5.37;;;2.70;;
870;SDS011;422;51.280;7.236;2022-10-22T12:11:54;6.83;;;2.37;;
870;SDS011;422;51.280;7.236;2022-10-22T12:14:31;5.30;;;2.60;;
870;SDS011;422;51.280;7.236;2022-10-22T12:17:09;5.37;;;2.93;;
870;SDS011;422;51.280;7.236;2022-10-22T12:19:38;6.70;;;2.70;;
870;SDS011;422;51.280;7.236;2022-10-22T12:22:14;5.33;;;2.40;;
870;SDS011;422;51.280;7.236;2022-10-22T12:24:45;7.00;;;3.47;;
870;SDS011;422;51.280;7.236;2022-10-22T12:27:17;5.40;;;3.03;;
870;SDS011;422;51.280;7.236;2022-10-22T12:29:45;5.50;;;2.10;;
870;SDS011;422;51.280;7.236;2022-10-22T12:32:15;5.80;;;2.50;;
870;SDS011;422;51.280;7.236;2022-10-22T12:34:47;4.87;;;2.57;;
870;SDS011;422;51.280;7.236;2022-10-22T12:37:17;3.73;;;2.47;;
870;SDS011;422;51.280;7.236;2022-10-22T12:39:45;8.00;;;2.40;;
870;SDS011;422;51.280;7.236;2022-10-22T12:42:12;5.30;;;2.23;;
870;SDS011;422;51.280;7.236;2022-10-22T12:44:44;4.43;;;3.30;;
870;SDS011;422;51.280;7.236;2022-10-22T12:47:16;8.33;;;2.87;;
870;SDS011;422;51.280;7.236;2022-10-22T12:49:46;6.77;;;2.60;;
870;SDS011;422;51.280;7.236;2022-10-22T12:52:16;6.07;;;2.50;;
870;SDS011;422;51.280;7.236;2022-10-22T12:54:48;4.50;;;2.60;;
870;SDS011;422;51.280;7.236;2022-10-22T12:57:19;3.70;;;2.30;;
870;SDS011;422;51.280;7.236;2022-10-22T12:59:48;7.30;;;2.90;;
870;SDS011;422;51.280;7.236;2022-10-22T13:02:18;4.00;;;2.57;;
870;SDS011;422;51.280;7.236;2022-10-22T13:07:59;5.07;;;2.60;;
870;SDS011;422;51.280;7.236;2022-10-22T13:10:32;5.77;;;3.00;;
870;SDS011;422;51.280;7.236;2022-10-22T13:13:00;8.13;;;3.13;;
870;SDS011;422;51.280;7.236;2022-10-22T13:15:36;7.53;;;3.20;;
870;SDS011;422;51.280;7.236;2022-10-22T13:18:06;5.37;;;2.97;;
870;SDS011;422;51.280;7.236;2022-10-22T13:20:49;5.40;;;2.90;;
870;SDS011;422;51.280;7.236;2022-10-22T13:23:27;5.00;;;2.90;;
870;SDS011;422;51.280;7.236;2022-10-22T13:25:59;3.20;;;2.23;;
870;SDS011;422;51.280;7.236;2022-10-22T13:28:28;5.23;;;2.60;;
870;SDS011;422;51.280;7.236;2022-10-22T13:31:09;3.23;;;2.10;;
870;SDS011;422;51.280;7.236;2022-10-22T13:33:42;7.70;;;2.80;;
870;SDS011;422;51.280;7.236;2022-10-22T13:36:19;6.10;;;2.80;;
870;SDS011;422;51.280;7.236;2022-10-22T13:38:50;4.70;;;2.40;;
870;SDS011;422;51.280;7.236;2022-10-22T13:41:18;5.20;;;2.77;;
870;SDS011;422;51.280;7.236;2022-10-22T13:43:49;6.03;;;3.03;;
870;SDS011;422;51.280;7.236;2022-10-22T13:46:17;5.23;;;2.90;;
870;SDS011;422;51.280;7.236;2022-10-22T13:48:48;5.37;;;2.70;;
870;SDS011;422;51.280;7.236;2022-10-22T13:51:20;5.17;;;2.60;;
870;SDS011;422;51.280;7.236;2022-10-22T13:53:54;5.57;;;3.07;;
870;SDS011;422;51.280;7.236;2022-10-22T13:56:21;5.60;;;2.43;;
870;SDS011;422;51.280;7.236;2022-10-22T13:58:49;3.50;;;2.00;;
870;SDS011;422;51.280;7.236;2022-10-22T14:01:18;3.93;;;2.70;;
870;SDS011;422;51.280;7.236;2022-10-22T14:03:47;6.40;;;2.50;;
870;SDS011;422;51.280;7.236;2022-10-22T14:06:16;4.40;;;2.50;;
870;SDS011;422;51.280;7.236;2022-10-22T14:08:45;5.53;;;2.77;;
870;SDS011;422;51.280;7.236;2022-10-22T14:11:16;5.60;;;3.03;;
870;SDS011;422;51.280;7.236;2022-10-22T14:13:43;5.23;;;2.33;;
870;SDS011;422;51.280;7.236;2022-10-22T14:16:14;4.17;;;2.30;;
870;SDS011;422;51.280;7.236;2022-10-22T14:18:44;6.83;;;3.43;;
870;SDS011;422;51.280;7.236;2022-10-22T14:21:13;5.30;;;3.10;;
870;SDS011;422;51.280;7.236;2022-10-22T14:23:42;4.20;;;2.87;;
870;SDS011;422;51.280;7.236;2022-10-22T14:26:11;7.27;;;2.73;;
870;SDS011;422;51.280;7.236;2022-10-22T14:28:48;4.63;;;3.03;;
870;SDS011;422;51.280;7.236;2022-10-22T14:31:15;4.80;;;2.30;;
870;SDS011;422;51.280;7.236;2022-10-22T14:33:42;6.73;;;2.63;;
870;SDS011;422;51.280;7.236;2022-10-22T14:36:10;3.50;;;2.10;;
870;SDS011;422;51.280;7.236;2022-10-22T14:38:39;3.43;;;2.53;;
870;SDS011;422;51.280;7.236;2022-10-22T14:41:09;5.43;;;2.47;;
870;SDS011;422;51.280;7.236;2022-10-22T14:43:44;6.83;;;2.60;;
870;SDS011;422;51.280;7.236;2022-10-22T14:46:12;7.80;;;2.63;;
870;SDS011;422;51.280;7.236;2022-10-22T14:48:40;5.63;;;2.80;;
870;SDS011;422;51.280;7.236;2022-10-22T14:51:10;7.07;;;2.60;;
870;SDS011;422;51.280;7.236;2022-10-22T14:53:38;5.40;;;2.80;;
870;SDS011;422;51.280;7.236;2022-10-22T14:56:08;4.80;;;3.17;;
870;SDS011;422;51.280;7.236;2022-10-22T14:58:39;4.43;;;2.57;;
870;SDS011;422;51.280;7.236;2022-10-22T15:01:08;6.70;;;2.73;;
870;SDS011;422;51.280;7.236;2022-10-22T15:03:35;5.43;;;3.87;;
870;SDS011;422;51.280;7.236;2022-10-22T15:06:02;5.13;;;3.20;;
870;SDS011;422;51.280;7.236;2022-10-22T15:08:30;4.60;;;3.30;;
870;SDS011;422;51.280;7.236;2022-10-22T15:11:02;5.20;;;3.17;;
870;SDS011;422;51.280;7.236;2022-10-22T15:13:30;4.30;;;3.27;;
870;SDS011;422;51.280;7.236;2022-10-22T15:15:58;7.40;;;4.70;;
870;SDS011;422;51.280;7.236;2022-10-22T15:18:27;4.80;;;3.90;;
870;SDS011;422;51.280;7.236;2022-10-22T15:20:55;8.00;;;4.20;;
870;SDS011;422;51.280;7.236;2022-10-22T15:23:24;5.97;;;4.10;;
870;SDS011;422;51.280;7.236;2022-10-22T15:25:51;8.47;;;3.20;;
870;SDS011;422;51.280;7.236;2022-10-22T15:28:18;5.83;;;3.40;;
870;SDS011;422;51.280;7.236;2022-10-22T15:30:50;4.70;;;3.90;;
870;SDS011;422;51.280;7.236;2022-10-22T15:33:18;6.33;;;3.43;;
870;SDS011;422;51.280;7.236;2022-10-22T15:35:49;7.10;;;4.60;;
870;SDS011;422;51.280;7.236;2022-10-22T15:38:16;5.03;;;3.60;;
870;SDS011;422;51.280;7.236;2022-10-22T15:40:44;10.10;;;4.70;;
870;SDS011;422;51.280;7.236;2022-10-22T15:43:12;6.73;;;4.30;;
870;SDS011;422;51.280;7.236;2022-10-22T15:45:41;4.40;;;3.67;;
870;SDS011;422;51.280;7.236;2022-10-22T15:48:08;7.40;;;5.00;;
870;SDS011;422;51.280;7.236;2022-10-22T15:50:38;10.60;;;6.43;;
870;SDS011;422;51.280;7.236;2022-10-22T15:53:06;11.47;;;6.87;;
870;SDS011;422;51.280;7.236;2022-10-22T15:55:34;8.50;;;6.00;;
870;SDS011;422;51.280;7.236;2022-10-22T15:58:01;8.43;;;5.37;;
870;SDS011;422;51.280;7.236;2022-10-22T16:00:28;5.90;;;4.77;;
870;SDS011;422;51.280;7.236;2022-10-22T16:02:56;6.70;;;4.60;;
870;SDS011;422;51.280;7.236;2022-10-22T16:05:23;21.97;;;6.17;;
870;SDS011;422;51.280;7.236;2022-10-22T16:07:53;9.17;;;4.80;;
870;SDS011;422;51.280;7.236;2022-10-22T16:10:22;7.50;;;4.17;;
870;SDS011;422;51.280;7.236;2022-10-22T16:12:49;9.40;;;5.00;;